Time;durP1;ratioP1;P1;durP2;ratioP2;P2;SDS_P1;SDS_P2;PMS_P1;PMS_P2;Temp;Humidity;BMP_temperature;BMP_pressure;BME280_temperature;BME280_humidity;BME280_pressure;Samples;Min_cycle;Max_cycle;Signal;HPM_P1;HPM_P2
2021/12/07 00:00:57;;;;;;;19.98;13.07;;;2.00;99.90;;;;;;5006430;28;20504;-65
2021/12/07 00:03:23;;;;;;;20.77;13.65;;;2.00;99.90;;;;;;4986667;28;20049;-65
2021/12/07 00:05:50;;;;;;;21.70;13.20;;;2.00;99.90;;;;;;4990602;28;20534;-64
2021/12/07 00:08:16;;;;;;;20.90;14.02;;;2.00;99.90;;;;;;5001903;28;20049;-65
2021/12/07 00:10:42;;;;;;;20.58;14.00;;;2.00;99.90;;;;;;5007279;28;20381;-65
2021/12/07 00:13:09;;;;;;;21.48;14.00;;;2.00;99.90;;;;;;4977008;28;20404;-65
2021/12/07 00:15:37;;;;;;;21.25;14.63;;;2.00;99.90;;;;;;4971828;28;20094;-65
2021/12/07 00:18:04;;;;;;;21.30;13.90;;;2.00;99.90;;;;;;5011826;28;20037;-65
2021/12/07 00:20:30;;;;;;;21.23;13.73;;;2.00;99.90;;;;;;4986372;28;20523;-65
2021/12/07 00:23:01;;;;;;;22.42;14.48;;;2.00;99.90;;;;;;5000067;28;20037;-65
2021/12/07 00:25:28;;;;;;;22.80;14.20;;;1.90;99.90;;;;;;5005769;28;20103;-65
2021/12/07 00:27:54;;;;;;;20.55;13.30;;;1.90;99.90;;;;;;4999804;28;20092;-65
2021/12/07 00:30:20;;;;;;;21.67;14.02;;;1.90;99.90;;;;;;5002687;28;20046;-64
2021/12/07 00:32:49;;;;;;;22.83;13.35;;;2.00;99.90;;;;;;5004281;28;20053;-65
2021/12/07 00:37:54;;;;;;;21.73;13.35;;;2.00;99.90;;;;;;5002740;28;20072;-65
2021/12/07 00:40:22;;;;;;;19.40;12.43;;;2.00;99.90;;;;;;4994934;28;20091;-65
2021/12/07 00:42:49;;;;;;;19.10;12.93;;;2.00;99.90;;;;;;5002869;28;20046;-65
2021/12/07 00:45:18;;;;;;;17.38;11.63;;;1.90;99.90;;;;;;5033249;28;20046;-65
2021/12/07 00:47:44;;;;;;;18.88;12.10;;;1.90;99.90;;;;;;4987772;28;20129;-65
2021/12/07 00:50:10;;;;;;;20.88;12.38;;;1.90;99.90;;;;;;5013168;28;20138;-65
2021/12/07 00:52:37;;;;;;;17.83;11.35;;;1.90;99.90;;;;;;4985040;28;20041;-65
2021/12/07 00:55:08;;;;;;;19.27;12.35;;;1.90;99.90;;;;;;4986956;28;20037;-65
2021/12/07 00:57:34;;;;;;;17.73;11.43;;;1.90;99.90;;;;;;5008650;28;20037;-65
2021/12/07 01:00:01;;;;;;;18.73;12.07;;;1.90;99.90;;;;;;4983468;28;20480;-65
2021/12/07 01:02:26;;;;;;;16.52;11.10;;;1.90;99.90;;;;;;5001281;28;20048;-65
2021/12/07 01:04:57;;;;;;;16.38;10.68;;;1.90;99.90;;;;;;5005455;28;20060;-65
2021/12/07 01:08:15;;;;;;;15.00;9.88;;;1.90;99.90;;;;;;5016979;28;20033;-65
2021/12/07 01:26:37;;;;;;;14.45;9.57;;;2.00;99.90;;;;;;4985439;28;20050;-65
2021/12/07 01:29:03;;;;;;;13.10;9.30;;;1.90;99.90;;;;;;4986783;28;20574;-65
2021/12/07 01:31:56;;;;;;;14.50;9.95;;;2.10;99.90;;;;;;5000812;28;20566;-65
2021/12/07 02:00:33;;;;;;;13.82;10.07;;;2.00;99.90;;;;;;5002004;28;20107;-65
2021/12/07 02:02:59;;;;;;;15.82;10.77;;;2.00;99.90;;;;;;5008332;28;20417;-65
2021/12/07 02:05:25;;;;;;;16.25;11.30;;;2.00;99.90;;;;;;4994340;28;20143;-65
2021/12/07 02:07:51;;;;;;;15.45;10.48;;;2.00;99.90;;;;;;5002072;28;20377;-65
2021/12/07 02:10:22;;;;;;;15.18;10.40;;;2.00;99.90;;;;;;4990409;28;20065;-65
2021/12/07 02:12:50;;;;;;;13.48;9.80;;;2.00;99.90;;;;;;5005962;28;20042;-65
2021/12/07 02:15:26;;;;;;;15.73;11.27;;;2.00;99.90;;;;;;5020709;28;20068;-65
2021/12/07 02:17:52;;;;;;;16.63;11.48;;;2.10;99.90;;;;;;4995477;28;20079;-65
2021/12/07 02:20:21;;;;;;;16.02;11.68;;;2.10;99.90;;;;;;5005598;28;20053;-65
2021/12/07 02:22:47;;;;;;;15.30;11.40;;;2.10;99.90;;;;;;4978286;28;20037;-65
2021/12/07 02:25:15;;;;;;;16.25;10.98;;;2.10;99.90;;;;;;4981938;28;20381;-65
2021/12/07 02:27:41;;;;;;;15.45;10.93;;;2.10;99.90;;;;;;4978880;28;20039;-65
2021/12/07 02:30:10;;;;;;;15.77;10.95;;;2.20;99.90;;;;;;5007300;28;20404;-65
2021/12/07 02:32:37;;;;;;;16.45;11.15;;;2.10;99.90;;;;;;5001092;28;20052;-65
2021/12/07 02:35:04;;;;;;;17.40;12.32;;;2.20;99.90;;;;;;5004931;28;20116;-64
2021/12/07 02:37:33;;;;;;;13.80;9.75;;;2.20;99.90;;;;;;5006316;28;20442;-64
2021/12/07 02:39:59;;;;;;;16.45;11.20;;;2.10;99.90;;;;;;4997493;28;20192;-65
2021/12/07 02:42:26;;;;;;;15.05;10.30;;;2.10;99.90;;;;;;4988453;28;20044;-65
2021/12/07 02:44:53;;;;;;;14.65;10.82;;;2.10;99.90;;;;;;4999734;28;20128;-65
2021/12/07 02:47:20;;;;;;;15.73;11.23;;;2.20;99.90;;;;;;4990141;28;20079;-65
2021/12/07 02:49:47;;;;;;;16.38;10.93;;;2.20;99.90;;;;;;4991192;28;20033;-64
2021/12/07 02:52:13;;;;;;;16.73;10.55;;;2.20;99.90;;;;;;5000192;28;20629;-65
2021/12/07 02:54:44;;;;;;;16.23;11.52;;;2.20;99.90;;;;;;4995952;28;20400;-65
2021/12/07 02:57:16;;;;;;;13.48;9.75;;;2.20;99.90;;;;;;4981186;28;20050;-65
2021/12/07 02:59:47;;;;;;;14.57;10.13;;;2.40;99.90;;;;;;5007016;28;20045;-65
2021/12/07 03:02:15;;;;;;;13.85;10.38;;;2.20;99.90;;;;;;5000961;28;20056;-65
2021/12/07 03:04:51;;;;;;;14.48;10.90;;;2.20;99.90;;;;;;5002246;28;20049;-65
2021/12/07 03:07:24;;;;;;;15.80;10.85;;;2.20;99.90;;;;;;5008903;28;20823;-65
2021/12/07 03:26:05;;;;;;;18.08;11.40;;;2.10;99.90;;;;;;4994899;28;20072;-65
2021/12/07 03:28:34;;;;;;;15.00;10.02;;;2.10;99.90;;;;;;4998331;28;20477;-65
2021/12/07 03:31:01;;;;;;;15.65;11.63;;;2.10;99.90;;;;;;5009388;28;20523;-65
2021/12/07 03:33:26;;;;;;;16.52;11.48;;;2.10;99.90;;;;;;5001254;28;20042;-65
2021/12/07 03:35:52;;;;;;;15.43;11.15;;;2.10;99.90;;;;;;5012911;28;20033;-65
2021/12/07 03:38:18;;;;;;;14.45;10.18;;;2.20;99.90;;;;;;4985294;28;20041;-64
2021/12/07 03:40:44;;;;;;;15.95;9.80;;;2.20;99.90;;;;;;5001458;28;20042;-65
2021/12/07 03:43:10;;;;;;;17.05;10.68;;;2.30;99.90;;;;;;5005451;28;20120;-65
2021/12/07 03:45:36;;;;;;;17.27;10.43;;;2.30;99.90;;;;;;4995914;28;20046;-65
2021/12/07 03:48:05;;;;;;;16.77;10.90;;;2.30;99.90;;;;;;5001125;28;20073;-65
2021/12/07 03:50:31;;;;;;;15.60;11.07;;;2.30;99.90;;;;;;4997637;28;20413;-65
2021/12/07 03:52:57;;;;;;;20.80;11.93;;;2.30;99.90;;;;;;5008278;28;20052;-65
2021/12/07 03:55:23;;;;;;;17.40;10.98;;;2.30;99.90;;;;;;4999637;28;20041;-65
2021/12/07 03:57:49;;;;;;;18.98;12.70;;;2.30;99.90;;;;;;5009653;28;20048;-65
2021/12/07 04:00:19;;;;;;;16.10;10.90;;;2.30;99.90;;;;;;5003777;28;20442;-65
2021/12/07 04:02:46;;;;;;;17.40;11.63;;;2.30;99.90;;;;;;4986057;28;20030;-65
2021/12/07 04:05:17;;;;;;;15.40;10.50;;;2.30;99.90;;;;;;4993321;28;20057;-65
2021/12/07 04:07:42;;;;;;;21.25;11.80;;;2.40;99.90;;;;;;5006644;28;20045;-65
2021/12/07 04:10:10;;;;;;;17.27;11.25;;;2.30;99.90;;;;;;4996595;28;20044;-65
2021/12/07 04:12:37;;;;;;;20.73;11.20;;;2.30;99.90;;;;;;4997605;28;20536;-66
2021/12/07 04:15:05;;;;;;;19.27;11.30;;;2.40;99.90;;;;;;4992001;28;20053;-65
2021/12/07 04:17:31;;;;;;;17.50;11.10;;;2.40;99.90;;;;;;5007480;28;20045;-65
2021/12/07 04:19:57;;;;;;;20.83;11.52;;;2.40;99.90;;;;;;5011480;28;20046;-65
2021/12/07 04:22:22;;;;;;;17.45;11.07;;;2.40;99.90;;;;;;4969372;28;20060;-65
2021/12/07 04:24:48;;;;;;;16.67;8.95;;;2.40;99.90;;;;;;5006820;28;20408;-65
2021/12/07 04:27:14;;;;;;;19.42;10.60;;;2.40;99.90;;;;;;5011013;28;20034;-65
2021/12/07 04:29:40;;;;;;;15.82;9.40;;;2.50;99.90;;;;;;5006014;28;20049;-65
2021/12/07 04:32:06;;;;;;;18.33;10.73;;;2.50;99.90;;;;;;5016056;28;20045;-65
2021/12/07 04:34:32;;;;;;;16.38;8.95;;;2.40;99.90;;;;;;5009699;28;20045;-65
2021/12/07 04:36:58;;;;;;;19.20;9.45;;;2.40;99.90;;;;;;4991384;28;20415;-65
2021/12/07 04:39:23;;;;;;;14.85;9.52;;;2.40;99.90;;;;;;4990154;28;21452;-65
2021/12/07 04:41:51;;;;;;;16.65;9.55;;;2.40;99.90;;;;;;5005091;28;20057;-65
2021/12/07 04:44:17;;;;;;;18.75;9.48;;;2.30;99.90;;;;;;4999930;28;20108;-65
2021/12/07 04:47:33;;;;;;;16.20;9.63;;;2.40;99.90;;;;;;5006697;28;20175;-65
2021/12/07 04:57:45;;;;;;;18.67;8.30;;;2.40;99.90;;;;;;5011633;28;20049;-66
2021/12/07 05:00:17;;;;;;;16.55;8.90;;;2.40;99.90;;;;;;5033559;28;20033;-66
2021/12/07 05:02:46;;;;;;;20.00;7.50;;;2.40;99.90;;;;;;5017736;28;20503;-66
2021/12/07 05:05:15;;;;;;;12.20;7.47;;;2.40;99.90;;;;;;5037552;28;20407;-66
2021/12/07 05:07:47;;;;;;;19.15;7.32;;;2.40;99.90;;;;;;5006489;28;20069;-66
2021/12/07 05:10:30;;;;;;;11.32;6.68;;;2.50;99.90;;;;;;5048439;28;20049;-66
2021/12/07 05:39:45;;;;;;;7.30;2.60;;;2.80;99.90;;;;;;5010784;28;20069;-66
2021/12/07 05:42:11;;;;;;;10.18;3.88;;;2.70;99.90;;;;;;4989818;28;20118;-66
2021/12/07 05:44:37;;;;;;;11.73;2.80;;;2.70;99.90;;;;;;5024714;28;20049;-66
2021/12/07 05:47:04;;;;;;;10.35;3.90;;;2.60;99.90;;;;;;5007621;28;20032;-66
2021/12/07 05:49:29;;;;;;;6.85;2.88;;;2.50;99.90;;;;;;5035956;28;20130;-66
2021/12/07 05:51:55;;;;;;;9.27;2.63;;;2.50;99.90;;;;;;5020519;28;20095;-66
2021/12/07 05:54:21;;;;;;;13.45;3.50;;;2.50;99.90;;;;;;5025585;28;20037;-67
2021/12/07 05:56:47;;;;;;;14.07;2.78;;;2.40;99.90;;;;;;5011316;28;20147;-66
2021/12/07 05:59:13;;;;;;;8.40;2.38;;;2.40;99.90;;;;;;5025027;28;20044;-66
2021/12/07 06:01:39;;;;;;;4.75;1.88;;;2.40;99.90;;;;;;5007166;28;20157;-66
2021/12/07 06:04:04;;;;;;;8.25;4.03;;;2.40;99.90;;;;;;5021121;28;20062;-66
2021/12/07 06:06:30;;;;;;;8.02;2.80;;;2.40;99.90;;;;;;5021343;28;20038;-66
2021/12/07 06:08:56;;;;;;;10.07;2.95;;;2.50;99.90;;;;;;5019674;28;20075;-66
2021/12/07 06:11:24;;;;;;;12.90;3.20;;;2.60;99.90;;;;;;5014303;28;20033;-66
2021/12/07 06:13:50;;;;;;;7.35;2.35;;;2.70;99.90;;;;;;5023505;28;20044;-66
2021/12/07 06:16:16;;;;;;;11.98;2.75;;;2.70;99.90;;;;;;5028411;28;20119;-66
2021/12/07 06:18:43;;;;;;;8.00;2.40;;;2.80;99.90;;;;;;5030509;28;20187;-66
2021/12/07 06:21:10;;;;;;;12.32;2.60;;;2.80;99.90;;;;;;5024704;28;20128;-66
2021/12/07 06:23:36;;;;;;;9.45;2.30;;;2.80;99.90;;;;;;5002748;28;20041;-66
2021/12/07 06:26:03;;;;;;;11.52;3.03;;;2.90;99.90;;;;;;5026433;28;20045;-65
2021/12/07 06:28:30;;;;;;;10.13;2.40;;;2.90;99.90;;;;;;5011374;28;20037;-66
2021/12/07 06:30:56;;;;;;;9.57;2.60;;;2.80;99.90;;;;;;5005912;28;20187;-66
2021/12/07 06:33:24;;;;;;;13.80;2.53;;;2.80;99.90;;;;;;5011418;28;20044;-66
2021/12/07 06:35:56;;;;;;;7.60;1.70;;;2.80;99.90;;;;;;5011991;28;20049;-66
2021/12/07 06:38:23;;;;;;;11.10;2.20;;;2.80;99.90;;;;;;5020399;28;20053;-66
2021/12/07 06:40:50;;;;;;;6.20;2.20;;;2.70;99.90;;;;;;5019283;28;20049;-66
2021/12/07 06:43:15;;;;;;;9.02;2.17;;;2.80;99.90;;;;;;5021199;28;20044;-66
2021/12/07 06:45:41;;;;;;;12.23;2.65;;;2.80;99.90;;;;;;5023744;28;20075;-67
2021/12/07 06:48:07;;;;;;;15.23;2.97;;;2.70;99.90;;;;;;5026847;28;20087;-67
2021/12/07 06:50:35;;;;;;;17.88;3.10;;;2.70;99.90;;;;;;5027249;28;20386;-66
2021/12/07 06:53:00;;;;;;;17.13;3.17;;;2.70;99.90;;;;;;5005341;28;20112;-66
2021/12/07 06:55:27;;;;;;;7.68;2.92;;;2.60;99.90;;;;;;5010003;28;20106;-66
2021/12/07 06:57:53;;;;;;;11.13;3.03;;;2.70;99.90;;;;;;5023361;28;20516;-66
2021/12/07 07:00:19;;;;;;;9.35;2.53;;;2.60;99.90;;;;;;5004526;28;20071;-67
2021/12/07 07:02:45;;;;;;;7.05;2.90;;;2.60;99.90;;;;;;5028737;28;20040;-66
2021/12/07 07:05:11;;;;;;;10.05;2.58;;;2.60;99.90;;;;;;5003698;28;20045;-67
2021/12/07 07:07:39;;;;;;;10.40;3.38;;;2.60;99.90;;;;;;5021139;28;20048;-66
2021/12/07 07:10:05;;;;;;;11.32;3.15;;;2.50;99.90;;;;;;5014117;28;20049;-66
2021/12/07 07:12:31;;;;;;;9.35;2.80;;;2.50;99.90;;;;;;5016578;28;20044;-66
2021/12/07 07:14:57;;;;;;;7.07;3.22;;;2.50;99.90;;;;;;5023337;28;20041;-66
2021/12/07 07:17:23;;;;;;;11.18;4.50;;;2.40;99.90;;;;;;5005781;28;20636;-66
2021/12/07 07:19:48;;;;;;;10.68;3.75;;;2.50;99.90;;;;;;5034606;28;20060;-66
2021/12/07 07:22:14;;;;;;;15.50;4.78;;;2.50;99.90;;;;;;5022311;28;20524;-65
2021/12/07 07:24:42;;;;;;;14.32;4.35;;;2.40;99.90;;;;;;5007075;28;20380;-65
2021/12/07 07:27:08;;;;;;;14.30;4.43;;;2.40;99.90;;;;;;5017876;28;20063;-65
2021/12/07 07:29:34;;;;;;;11.82;3.53;;;2.40;99.90;;;;;;5028070;28;20040;-65
2021/12/07 07:32:00;;;;;;;10.63;3.97;;;2.40;99.90;;;;;;5018445;28;20060;-65
2021/12/07 07:34:26;;;;;;;9.27;3.67;;;2.40;99.90;;;;;;5034756;28;20064;-65
2021/12/07 07:36:52;;;;;;;8.10;3.70;;;2.50;99.90;;;;;;5015264;28;20416;-65
2021/12/07 07:39:19;;;;;;;14.00;3.47;;;2.50;99.90;;;;;;5008390;28;20028;-65
2021/12/07 07:41:44;;;;;;;16.98;3.67;;;2.50;99.90;;;;;;4992316;28;20044;-65
2021/12/07 07:44:10;;;;;;;5.85;3.05;;;2.50;99.90;;;;;;5002254;28;20072;-65
2021/12/07 07:46:36;;;;;;;13.48;3.92;;;2.50;99.90;;;;;;4995645;28;20053;-65
2021/12/07 07:49:04;;;;;;;12.80;3.80;;;2.70;99.90;;;;;;5021798;28;20483;-66
2021/12/07 07:51:29;;;;;;;10.75;3.50;;;2.70;99.90;;;;;;5004632;28;20559;-65
2021/12/07 07:53:56;;;;;;;12.32;4.03;;;2.80;99.90;;;;;;5021309;28;20053;-65
2021/12/07 07:56:22;;;;;;;12.30;4.35;;;2.70;99.90;;;;;;5026175;28;20052;-65
2021/12/07 07:58:48;;;;;;;11.27;3.70;;;2.70;99.90;;;;;;5024596;28;20045;-65
2021/12/07 08:01:14;;;;;;;10.85;3.60;;;2.70;99.90;;;;;;5019254;28;20144;-65
2021/12/07 08:03:39;;;;;;;8.90;3.20;;;2.80;99.90;;;;;;5026979;28;20124;-65
2021/12/07 08:06:05;;;;;;;12.77;3.42;;;2.80;99.90;;;;;;5006435;28;20529;-65
2021/12/07 08:08:31;;;;;;;14.30;4.03;;;2.80;99.90;;;;;;5033145;28;20062;-66
2021/12/07 08:10:57;;;;;;;15.00;4.32;;;2.80;99.90;;;;;;5008843;28;20040;-66
2021/12/07 08:13:22;;;;;;;11.77;4.03;;;2.80;99.90;;;;;;5022513;28;20110;-66
2021/12/07 08:15:49;;;;;;;6.88;3.58;;;2.80;99.90;;;;;;5026761;28;22071;-65
2021/12/07 08:18:15;;;;;;;14.43;4.82;;;2.80;99.90;;;;;;5023944;28;20049;-66
2021/12/07 08:20:42;;;;;;;11.57;4.85;;;2.80;99.90;;;;;;5027382;28;20048;-66
2021/12/07 08:23:08;;;;;;;20.33;6.13;;;2.80;99.90;;;;;;5021684;28;20041;-66
2021/12/07 08:25:43;;;;;;;8.40;3.85;;;2.80;99.90;;;;;;5006091;28;20037;-66
2021/12/07 08:28:14;;;;;;;15.23;4.68;;;2.80;99.90;;;;;;5011243;28;20132;-66
2021/12/07 08:30:41;;;;;;;12.10;4.15;;;2.80;99.90;;;;;;5021546;28;20048;-66
2021/12/07 08:33:07;;;;;;;20.48;5.75;;;2.70;99.90;;;;;;5015187;28;20053;-66
2021/12/07 08:35:34;;;;;;;12.13;4.47;;;2.80;99.90;;;;;;5032674;28;20044;-66
2021/12/07 08:38:00;;;;;;;17.08;5.07;;;2.80;99.90;;;;;;5028850;28;20056;-66
2021/12/07 08:40:29;;;;;;;14.65;4.70;;;2.80;99.90;;;;;;5006541;28;20132;-67
2021/12/07 08:42:55;;;;;;;13.95;4.57;;;2.80;99.90;;;;;;5036154;28;20068;-67
2021/12/07 08:45:23;;;;;;;16.98;5.03;;;2.80;99.90;;;;;;5048072;28;20624;-67
2021/12/07 08:47:49;;;;;;;14.23;4.68;;;2.80;99.90;;;;;;5018301;28;20629;-66
2021/12/07 08:50:19;;;;;;;14.35;5.38;;;2.80;99.90;;;;;;5027691;28;20123;-67
2021/12/07 08:52:48;;;;;;;11.73;4.25;;;2.90;99.90;;;;;;5032887;28;20095;-67
2021/12/07 09:00:33;;;;;;;21.15;7.20;;;3.00;99.90;;;;;;5028187;28;20045;-67
2021/12/07 09:02:59;;;;;;;15.68;3.90;;;3.00;99.90;;;;;;5022499;28;20069;-67
2021/12/07 09:05:25;;;;;;;13.25;5.80;;;3.00;99.90;;;;;;5009331;28;20573;-66
2021/12/07 09:07:51;;;;;;;10.60;3.92;;;3.00;99.90;;;;;;5030207;28;20043;-66
2021/12/07 09:10:18;;;;;;;14.40;4.80;;;3.10;99.90;;;;;;5029036;28;20041;-66
2021/12/07 09:12:44;;;;;;;17.40;3.50;;;3.10;99.90;;;;;;5026734;28;20037;-66
2021/12/07 09:15:11;;;;;;;11.07;3.67;;;3.10;99.90;;;;;;5029428;28;20044;-66
2021/12/07 09:17:37;;;;;;;12.85;3.40;;;3.20;99.90;;;;;;5022758;28;20053;-65
2021/12/07 09:20:07;;;;;;;13.55;4.22;;;3.20;99.90;;;;;;5029616;28;20056;-66
2021/12/07 09:22:32;;;;;;;10.93;3.78;;;3.30;99.90;;;;;;5031009;28;20112;-67
2021/12/07 09:24:58;;;;;;;10.82;2.80;;;3.30;99.90;;;;;;5009404;28;20124;-65
2021/12/07 09:27:24;;;;;;;15.02;3.40;;;3.40;99.90;;;;;;5022848;28;20098;-66
2021/12/07 09:29:50;;;;;;;13.63;3.30;;;3.40;99.90;;;;;;5025984;28;20098;-67
2021/12/07 09:32:16;;;;;;;11.50;3.88;;;3.50;99.90;;;;;;5037819;28;20052;-66
2021/12/07 09:34:42;;;;;;;14.20;3.90;;;3.50;99.90;;;;;;5029870;28;20040;-66
2021/12/07 09:37:08;;;;;;;15.05;4.57;;;3.60;99.90;;;;;;5016987;28;20441;-66
2021/12/07 09:39:34;;;;;;;12.32;3.63;;;3.60;99.90;;;;;;5032725;28;20094;-66
2021/12/07 09:42:00;;;;;;;12.90;3.25;;;3.60;99.90;;;;;;5025399;28;20064;-67
2021/12/07 09:44:25;;;;;;;13.05;3.35;;;3.70;99.90;;;;;;5031525;28;20518;-67
2021/12/07 09:46:51;;;;;;;15.35;3.40;;;3.60;99.90;;;;;;5020902;28;20116;-67
2021/12/07 09:49:17;;;;;;;16.00;3.75;;;3.60;99.90;;;;;;5038035;28;20471;-66
2021/12/07 09:51:43;;;;;;;10.60;3.95;;;3.70;99.90;;;;;;5027666;28;20079;-66
2021/12/07 09:54:10;;;;;;;13.77;3.97;;;3.70;99.90;;;;;;5021997;28;20503;-67
2021/12/07 09:56:37;;;;;;;13.52;3.38;;;3.70;99.90;;;;;;5025252;28;20117;-66
2021/12/07 09:59:05;;;;;;;17.75;4.15;;;3.80;99.90;;;;;;5031960;28;20530;-66
2021/12/07 10:01:31;;;;;;;11.70;3.67;;;3.90;99.90;;;;;;4993999;28;20133;-67
2021/12/07 10:03:57;;;;;;;25.77;4.63;;;3.90;99.90;;;;;;5013964;28;20527;-67
2021/12/07 10:06:24;;;;;;;10.75;3.83;;;4.00;99.90;;;;;;5031847;28;20064;-68
2021/12/07 10:08:50;;;;;;;15.40;4.25;;;4.40;99.90;;;;;;5018047;28;20148;-67
2021/12/07 10:11:17;;;;;;;18.08;4.38;;;4.20;99.90;;;;;;5012402;28;20116;-67
2021/12/07 10:13:45;;;;;;;14.98;4.90;;;4.30;99.90;;;;;;5010389;28;20176;-67
2021/12/07 10:16:14;;;;;;;15.20;4.13;;;4.40;99.90;;;;;;5015790;28;20048;-67
2021/12/07 10:18:42;;;;;;;13.98;3.67;;;4.60;99.90;;;;;;5030376;28;20047;-68
2021/12/07 10:21:25;;;;;;;14.60;4.47;;;4.60;99.90;;;;;;5031816;28;20105;-67
2021/12/07 10:24:01;;;;;;;7.40;3.80;;;4.80;99.90;;;;;;5025389;28;20044;-67
2021/12/07 10:26:36;;;;;;;13.68;4.10;;;4.80;99.90;;;;;;5033989;28;20653;-67
2021/12/07 10:29:14;;;;;;;13.80;4.05;;;4.90;99.90;;;;;;5006287;28;20530;-67
2021/12/07 10:31:49;;;;;;;15.70;3.83;;;5.00;99.90;;;;;;4994093;28;20052;-66
2021/12/07 10:34:18;;;;;;;18.58;3.70;;;5.10;99.90;;;;;;5010095;28;20049;-67
2021/12/07 10:36:51;;;;;;;10.85;3.75;;;5.20;99.90;;;;;;5028088;28;20032;-67
2021/12/07 10:39:18;;;;;;;15.18;4.25;;;5.20;99.90;;;;;;5052886;28;20098;-67
2021/12/07 10:41:53;;;;;;;26.85;6.75;;;5.30;99.90;;;;;;5029178;28;20048;-66
2021/12/07 10:44:31;;;;;;;10.52;4.28;;;5.40;99.90;;;;;;5013217;28;20552;-67
2021/12/07 10:46:59;;;;;;;18.52;4.40;;;5.50;99.90;;;;;;5029048;28;20029;-66
2021/12/07 10:49:32;;;;;;;10.80;4.25;;;5.60;99.90;;;;;;5027077;28;20632;-67
2021/12/07 10:52:28;;;;;;;15.40;4.17;;;5.60;99.90;;;;;;5026158;28;20095;-67
2021/12/07 10:55:15;;;;;;;11.07;4.05;;;5.70;99.90;;;;;;5040185;23;20041;-66
2021/12/07 10:57:44;;;;;;;12.55;4.10;;;5.80;99.90;;;;;;5025861;28;20437;-66
2021/12/07 11:00:26;;;;;;;11.52;3.92;;;5.80;99.90;;;;;;5030483;28;20550;-66
2021/12/07 11:02:57;;;;;;;16.73;4.13;;;5.90;99.90;;;;;;4988504;28;20085;-66
2021/12/07 11:05:28;;;;;;;15.93;5.43;;;6.00;99.90;;;;;;4997891;28;20278;-66
2021/12/07 11:07:54;;;;;;;17.77;4.00;;;6.10;99.90;;;;;;5011824;28;20038;-66
2021/12/07 11:10:32;;;;;;;16.25;4.15;;;6.20;99.90;;;;;;4999319;28;20070;-66
2021/12/07 11:15:52;;;;;;;16.55;4.57;;;6.20;99.90;;;;;;4991271;28;20042;-66
2021/12/07 11:18:33;;;;;;;15.75;3.70;;;6.20;99.90;;;;;;4990866;28;20137;-66
2021/12/07 11:21:08;;;;;;;16.33;3.47;;;6.10;99.90;;;;;;4977586;28;20407;-66
2021/12/07 11:23:38;;;;;;;17.70;4.88;;;6.10;99.90;;;;;;4995207;28;20045;-66
2021/12/07 11:31:49;;;;;;;20.70;3.47;;;6.10;99.90;;;;;;5000223;28;20336;-66
2021/12/07 11:34:21;;;;;;;16.55;3.63;;;6.00;99.90;;;;;;4985469;28;20041;-66
2021/12/07 11:36:57;;;;;;;25.40;4.93;;;6.10;99.90;;;;;;4994744;28;20046;-65
2021/12/07 11:39:31;;;;;;;18.52;4.32;;;6.20;99.90;;;;;;4998151;28;20060;-66
2021/12/07 11:42:08;;;;;;;18.42;4.22;;;6.30;99.90;;;;;;4988854;28;20068;-66
2021/12/07 11:44:56;;;;;;;14.10;4.90;;;6.40;99.90;;;;;;5012715;28;20045;-66
2021/12/07 11:47:49;;;;;;;11.02;3.72;;;6.50;99.90;;;;;;4990132;28;20052;-66
2021/12/07 11:50:40;;;;;;;11.68;3.33;;;6.60;99.90;;;;;;4988506;28;20136;-66
2021/12/07 11:53:18;;;;;;;12.95;4.38;;;6.70;99.90;;;;;;5003692;28;20124;-66
2021/12/07 11:55:57;;;;;;;14.00;3.83;;;6.70;99.90;;;;;;4991982;28;20037;-66
2021/12/07 11:58:23;;;;;;;13.85;4.13;;;6.80;99.90;;;;;;5011152;28;20072;-65
2021/12/07 12:00:55;;;;;;;10.13;3.47;;;6.80;99.90;;;;;;5004461;28;20044;-66
2021/12/07 12:03:23;;;;;;;13.50;3.65;;;6.90;99.90;;;;;;4987105;28;20539;-66
2021/12/07 12:05:51;;;;;;;8.35;3.13;;;6.90;99.90;;;;;;4977312;28;20046;-66
2021/12/07 12:08:20;;;;;;;11.15;3.42;;;6.90;99.90;;;;;;4991256;28;20041;-66
2021/12/07 12:11:25;;;;;;;10.65;3.38;;;7.00;99.90;;;;;;4998073;28;20533;-66
2021/12/07 12:14:26;;;;;;;15.45;3.55;;;7.00;99.90;;;;;;5002962;28;20424;-66
2021/12/07 12:16:58;;;;;;;14.00;3.80;;;7.00;99.90;;;;;;4998095;28;20579;-66
2021/12/07 12:19:43;;;;;;;11.65;3.47;;;7.00;99.90;;;;;;4990233;28;20045;-65
2021/12/07 12:22:23;;;;;;;;;;;7.10;99.90;;;;;;5026098;28;20104;-65
2021/12/07 12:24:52;;;;;;;11.30;3.63;;;7.10;99.90;;;;;;5014933;28;19936;-66
2021/12/07 12:27:25;;;;;;;13.50;3.40;;;7.00;99.90;;;;;;4988099;28;20136;-66
2021/12/07 12:29:53;;;;;;;14.90;3.67;;;7.00;99.90;;;;;;4992128;28;20120;-65
2021/12/07 12:32:36;;;;;;;13.68;3.80;;;7.00;99.90;;;;;;5004907;28;20081;-65
2021/12/07 12:35:06;;;;;;;11.18;3.60;;;7.20;99.90;;;;;;5007207;28;20231;-65
2021/12/07 12:37:32;;;;;;;12.77;3.75;;;6.90;99.90;;;;;;4994669;28;20053;-66
2021/12/07 12:40:23;;;;;;;10.07;3.50;;;6.90;99.90;;;;;;5001071;28;20751;-65
2021/12/07 12:42:54;;;;;;;12.85;3.67;;;6.90;99.90;;;;;;4981935;28;20148;-65
2021/12/07 12:45:31;;;;;;;8.90;3.17;;;6.80;99.90;;;;;;5010924;28;20041;-65
2021/12/07 12:48:22;;;;;;;15.82;4.10;;;6.80;99.90;;;;;;4984221;28;20041;-64
2021/12/07 12:50:50;;;;;;;11.88;3.58;;;6.80;99.90;;;;;;4993135;28;20499;-64
2021/12/07 12:53:17;;;;;;;10.45;3.50;;;6.80;99.90;;;;;;4989301;28;20045;-62
2021/12/07 12:56:00;;;;;;;12.02;3.70;;;6.70;99.90;;;;;;5009802;28;20640;-61
2021/12/07 12:58:33;;;;;;;19.58;4.28;;;6.70;99.90;;;;;;4985150;28;20083;-63
2021/12/07 13:01:11;;;;;;;18.45;4.07;;;6.70;99.90;;;;;;5001726;28;20056;-62
2021/12/07 13:03:43;;;;;;;13.70;4.05;;;6.70;99.90;;;;;;4992936;28;20048;-61
2021/12/07 13:06:14;;;;;;;18.75;4.00;;;6.70;99.90;;;;;;4978550;28;20071;-62
2021/12/07 13:08:57;;;;;;;16.00;4.50;;;6.60;99.90;;;;;;4998729;28;20148;-61
2021/12/07 13:11:45;;;;;;;14.48;4.30;;;6.60;99.90;;;;;;4998570;28;20036;-61
2021/12/07 13:14:30;;;;;;;12.00;3.92;;;6.60;99.90;;;;;;5004106;28;20528;-62
2021/12/07 13:16:55;;;;;;;12.57;4.20;;;6.60;99.90;;;;;;5022680;28;20290;-63
2021/12/07 13:19:21;;;;;;;9.90;3.50;;;6.60;99.90;;;;;;5005650;28;20045;-62
2021/12/07 13:21:48;;;;;;;24.98;4.28;;;6.50;99.90;;;;;;4983953;28;20046;-62
2021/12/07 13:24:20;;;;;;;14.57;3.78;;;6.50;99.90;;;;;;5001096;28;20055;-63
2021/12/07 13:26:52;;;;;;;13.68;3.72;;;6.40;99.90;;;;;;4997917;28;20042;-63
2021/12/07 13:29:24;;;;;;;18.30;3.92;;;6.40;99.90;;;;;;5008034;28;20038;-63
2021/12/07 13:31:57;;;;;;;12.00;3.80;;;6.40;99.90;;;;;;5021487;28;20592;-62
2021/12/07 13:34:29;;;;;;;10.43;3.80;;;6.40;99.90;;;;;;5002975;28;20044;-63
2021/12/07 13:36:59;;;;;;;9.55;3.95;;;6.40;99.90;;;;;;4992647;28;20037;-63
2021/12/07 13:39:24;;;;;;;11.27;3.20;;;6.40;99.90;;;;;;5021470;28;20037;-63
2021/12/07 13:41:59;;;;;;;15.30;4.80;;;6.30;99.90;;;;;;5005738;28;20076;-63
2021/12/07 13:44:30;;;;;;;8.65;3.47;;;6.30;99.90;;;;;;4996309;28;20049;-63
2021/12/07 13:47:00;;;;;;;15.00;3.90;;;6.30;99.90;;;;;;4991202;28;20511;-63
2021/12/07 13:49:26;;;;;;;13.10;4.10;;;6.20;99.90;;;;;;4998324;28;20116;-63
2021/12/07 13:51:53;;;;;;;12.65;4.47;;;6.20;99.90;;;;;;4988581;28;20499;-62
2021/12/07 13:54:20;;;;;;;12.02;3.70;;;6.20;99.90;;;;;;4999342;28;20072;-62
2021/12/07 13:56:47;;;;;;;9.90;3.47;;;6.10;99.90;;;;;;5015446;28;20045;-62
2021/12/07 13:59:16;;;;;;;19.05;3.88;;;6.10;99.90;;;;;;5001789;28;20041;-61
2021/12/07 14:01:52;;;;;;;19.20;4.40;;;6.00;99.90;;;;;;5007230;28;20053;-61
2021/12/07 14:04:18;;;;;;;14.35;4.13;;;6.00;99.90;;;;;;5013707;28;20041;-62
2021/12/07 14:06:48;;;;;;;18.35;4.38;;;6.00;99.90;;;;;;4999851;28;20041;-62
2021/12/07 14:09:15;;;;;;;13.50;4.07;;;5.90;99.90;;;;;;4991279;28;20141;-62
2021/12/07 14:11:41;;;;;;;12.63;3.95;;;5.90;99.90;;;;;;5000130;28;20294;-62
2021/12/07 14:14:13;;;;;;;12.90;4.22;;;5.90;99.90;;;;;;4960486;28;20099;-62
2021/12/07 14:16:39;;;;;;;14.80;4.57;;;5.80;99.90;;;;;;5003367;28;20088;-64
2021/12/07 14:19:06;;;;;;;13.65;4.07;;;5.80;99.90;;;;;;4988669;28;20045;-62
2021/12/07 14:21:32;;;;;;;12.88;4.40;;;5.80;99.90;;;;;;4992298;28;20489;-63
2021/12/07 14:24:08;;;;;;;11.77;3.63;;;5.70;99.90;;;;;;4977949;28;20050;-62
2021/12/07 14:26:38;;;;;;;12.18;5.47;;;5.80;99.90;;;;;;4992399;28;20128;-62
2021/12/07 14:29:04;;;;;;;10.98;4.18;;;5.70;99.90;;;;;;5006464;28;20037;-63
2021/12/07 14:31:48;;;;;;;12.02;3.92;;;5.60;99.90;;;;;;4994555;28;20045;-62
2021/12/07 14:34:24;;;;;;;14.95;4.35;;;5.60;99.90;;;;;;5004544;28;20302;-62
2021/12/07 14:36:57;;;;;;;13.93;5.32;;;5.60;99.90;;;;;;4988732;28;20696;-63
2021/12/07 14:39:30;;;;;;;15.93;4.93;;;5.50;99.90;;;;;;4973382;28;20108;-63
2021/12/07 14:42:04;;;;;;;13.27;4.07;;;5.50;99.90;;;;;;4999656;28;20053;-62
2021/12/07 14:44:59;;;;;;;16.58;4.38;;;5.50;99.90;;;;;;5014866;28;20454;-62
2021/12/07 14:47:28;;;;;;;15.98;5.18;;;5.40;99.90;;;;;;4981451;28;20682;-62